Create Custom Reports and Graphics: Custom Report

Stanford Met Tower

Current Conditions

2/4/23 12:45 AM (-08:00)
Updated Every 15 Minutes
Precip 24Hr 0.26 In
Storm Total 0.26 In
Temp 51.1 °F   0.3
RH 98 %   54
Dew Pt 50.6 °F   20.4
Wind Dir ESE | 123 °
Wind Spd 2.9 mph   2.5
Wind Gust 3.9 mph   4.6
NowCast AQI Value 106 AQI   98
NowCast AQI Status Unhealthy for Sensitive
Daily Min Temp 51.0 °F   2.0
Daily Max Temp 51.6 °F   1.6
Daily Max Wind 3.9 mph   6.9
Yest MinT 47.9 °F
Yest MaxT 57.2 °F
Yest MaxGst 16.3 mph
Season Precip 23.00 In

Last 48 Hours

Stanford Met Tower

Hourly Data | America/Los_Angeles
as of 2/4/23 1:13 AM PST
Date & Time Temp (°F) WindChill (°F) RH (%) Dew Pt (°F) Wind Dir (°) Wind Spd (mph) Wind Gust (mph) Solar Rad (W/m2) Pressure (mb) NowCast AQI Value (AQI) NowCast AQI Status Latest Rain (In) Daily Rain (In) Daily Min Temp (°F) Daily Max Temp (°F)
2/4/23 - 0000 51.0 - 98 50.4 N | 0 0.0 0.0 0 1,025.6 106 Unhealthy for Sensitive 0.00 0.26 47.9 57.2
2/3/23 - 2300 50.5 - 98 49.9 N | 0 0.0 0.0 0 1,025.7 94 Moderate 0.00 0.26 47.9 57.2
2/3/23 - 2200 51.0 - 97 50.3 N | 0 0.0 0.0 0 1,025.8 91 Moderate 0.00 0.26 47.9 57.2
2/3/23 - 2100 51.5 - 97 50.7 N | 0 0.0 0.0 0 1,025.7 86 Moderate 0.00 0.26 47.9 57.2
2/3/23 - 2000 51.3 - 97 50.4 N | 0 0.0 0.0 0 1,025.7 72 Moderate 0.00 0.26 47.9 57.2
2/3/23 - 1900 51.3 - 96 50.2 N | 0 0.0 0.0 0 1,026.0 51 Moderate 0.00 0.26 47.9 57.2
2/3/23 - 1800 51.5 - 95 50.0 N | 0 0.0 0.0 4 1,026.0 19 Good 0.00 0.26 47.9 57.2
2/3/23 - 1700 52.1 - 93 50.2 N | 11 1.4 5.6 48 1,026.0 15 Good 0.00 0.26 47.9 57.2
2/3/23 - 1600 53.4 - 89 50.3 NNE | 30 3.1 6.7 62 1,025.9 14 Good 0.00 0.26 47.9 57.2
2/3/23 - 1500 54.9 - 88 51.4 N | 11 2.6 5.4 117 1,025.7 12 Good 0.00 0.26 47.9 57.2
2/3/23 - 1400 54.2 - 89 51.1 NNW | 341 1.6 4.7 130 1,025.8 10 Good 0.00 0.26 47.9 57.2
2/3/23 - 1300 52.6 - 92 50.5 W | 269 0.3 3.3 234 1,026.4 9 Good 0.00 0.26 47.9 57.2
2/3/23 - 1200 50.6 - 94 49.0 ESE | 104 1.2 5.9 235 1,027.4 9 Good 0.01 0.26 47.9 57.2
2/3/23 - 1100 49.4 - 94 47.9 ESE | 102 1.8 7.5 114 1,027.7 10 Good 0.01 0.25 47.9 57.2
2/3/23 - 1000 48.2 45.6 96 47.1 ESE | 116 5.8 12.5 93 1,027.3 12 Good 0.01 0.24 47.9 57.2
2/3/23 - 0900 48.6 46.5 96 47.6 ESE | 116 5.2 11.3 36 1,027.2 10 Good 0.02 0.23 47.9 57.2
2/3/23 - 0800 48.6 - 95 47.2 E | 90 1.0 5.3 5 1,026.7 11 Good 0.08 0.21 48.5 57.2
2/3/23 - 0700 49.7 - 87 45.9 SSE | 164 3.1 14.9 0 1,025.8 8 Good 0.07 0.13 48.6 57.2
2/3/23 - 0600 50.8 - 83 45.8 SE | 137 7.7 16.3 0 1,025.0 7 Good 0.03 0.06 49.0 57.2
2/3/23 - 0500 54.1 - 56 38.1 S | 185 5.7 15.9 0 1,024.8 6 Good 0.03 0.03 49.0 57.2
2/3/23 - 0400 56.4 - 38 30.8 SE | 142 5.5 10.7 0 1,024.1 6 Good 0.00 0.00 49.0 57.2
2/3/23 - 0300 55.8 - 34 28.0 SE | 138 6.3 11.8 0 1,024.2 6 Good 0.00 0.00 49.0 56.6
2/3/23 - 0200 55.2 - 32 26.1 SSE | 148 5.8 10.9 0 1,024.7 6 Good 0.00 0.00 49.0 56.4
2/3/23 - 0100 51.4 - 46 31.0 SSE | 156 5.4 10.8 0 1,025.1 7 Good 0.00 0.00 49.0 55.5
2/3/23 - 0000 52.1 - 47 32.2 SSE | 167 4.2 7.9 0 1,025.3 8 Good 0.00 0.00 31.3 62.8
2/2/23 - 2300 56.4 - 35 29.3 SE | 139 6.6 15.1 0 1,024.8 8 Good 0.00 0.00 31.3 62.8
2/2/23 - 2200 57.4 - 30 26.1 SE | 135 8.0 16.8 0 1,024.7 8 Good 0.00 0.00 31.3 62.8
2/2/23 - 2100 57.0 - 28 24.1 SSE | 156 6.8 14.6 0 1,024.8 8 Good 0.00 0.00 31.3 62.8
2/2/23 - 2000 57.4 - 27 23.8 SSE | 161 7.3 12.8 0 1,024.8 10 Good 0.00 0.00 31.3 62.8
2/2/23 - 1900 58.2 - 30 27.3 SSE | 158 6.8 13.0 0 1,025.0 12 Good 0.00 0.00 31.3 62.8
2/2/23 - 1800 59.5 - 28 26.1 SE | 146 6.1 12.1 5 1,025.2 16 Good 0.00 0.00 31.3 62.8
2/2/23 - 1700 61.3 - 29 27.7 S | 174 9.8 28.5 58 1,025.3 26 Good 0.00 0.00 31.3 62.8
2/2/23 - 1600 59.5 - 49 40.2 NNE | 25 2.7 8.4 233 1,024.6 43 Good 0.00 0.00 31.3 60.7
2/2/23 - 1500 58.6 - 45 37.4 N | 359 1.3 4.9 312 1,024.5 40 Good 0.00 0.00 31.3 59.9
2/2/23 - 1400 57.3 - 46 36.9 NE | 35 2.3 5.3 489 1,024.9 36 Good 0.00 0.00 31.3 58.6
2/2/23 - 1300 54.4 - 51 36.8 NNE | 26 1.9 6.0 539 1,026.0 35 Good 0.00 0.00 31.3 56.2
2/2/23 - 1200 50.8 - 57 36.1 N | 352 0.7 4.7 359 1,027.3 34 Good 0.00 0.00 31.3 52.9
2/2/23 - 1100 47.9 - 62 35.4 N | 0 0.0 0.0 249 1,027.9 30 Good 0.00 0.00 31.3 49.4
2/2/23 - 1000 43.6 - 71 34.9 SW | 233 0.6 3.6 213 1,028.1 27 Good 0.00 0.00 31.3 46.8
2/2/23 - 0900 36.8 - 83 32.1 SW | 221 2.8 6.3 104 1,027.9 23 Good 0.00 0.00 31.3 39.9
2/2/23 - 0800 33.1 28.9 88 30.0 SSW | 206 4.4 6.6 29 1,027.6 20 Good 0.00 0.00 31.3 37.1
2/2/23 - 0700 32.2 27.1 89 29.3 SSW | 206 5.3 7.3 0 1,027.4 20 Good 0.00 0.00 31.3 37.1
2/2/23 - 0600 32.1 27.2 88 29.1 SSW | 209 5.0 7.6 0 1,027.4 18 Good 0.00 0.00 31.3 37.1
2/2/23 - 0500 31.8 26.6 89 28.9 SSW | 209 5.3 8.3 0 1,027.5 18 Good 0.00 0.00 31.3 37.1
2/2/23 - 0400 32.9 28.6 87 29.3 SSW | 213 4.5 7.4 0 1,027.3 18 Good 0.00 0.00 32.0 37.1
2/2/23 - 0300 33.5 29.2 87 30.0 SW | 218 4.7 7.7 0 1,027.4 18 Good 0.00 0.00 33.1 37.1
2/2/23 - 0200 34.1 29.5 87 30.6 SSW | 211 5.0 8.1 0 1,027.5 20 Good 0.00 0.00 33.7 37.1
2/2/23 - 0100 35.8 - 83 31.2 SSW | 195 2.8 5.7 0 1,027.3 21 Good 0.00 0.00 34.1 37.1
Max 61.3 46.5 98 51.4 - 9.8 28.5 539 1,028.1 106 - 0.08 0.26 49.0 62.8
Avg 49.5 32.1 71 38.2 - 3.5 7.9 76 1,026.1 25 - 0.01 - - -
Min 31.8 26.6 27 23.8 - 0.0 0.0 0 1,024.1 6 - 0.00 0.00 31.3 37.1
Total - - - - - - - - - - - 0.26 - - -

Last 365 Observations

Stanford Met Tower

Daily Data | America/Los_Angeles
as of 2/4/23 1:13 AM PST
Date Daily Max Temp (°F) Time of Max Temp Daily Min Temp (°F) Time of Min Temp Daily Rain (In) Month Precip (In) Season Precip (In) Daily ETo (in) 7 Day ETo (in) Daily Solar Rad (Cal/cm2) Daily Max Wind (mph) Time of Max Wind Max Wind Dir (°) Dew Pt (°F) Max RH (%) Min RH (%) PM2.5 Daily Max (ug/m3) Time of Max PM2.5 Max Pressure (mb) (mb) Time of Max Press Min pressure (mb) (mb) Time of Min Press Max Temp2 (°F) Temp 2m (°F) Max Temp 10m (°F) Min Temp 10m (°F) Max Temp Inversion (°F) Time of Max Temp Inversion Min Temp Inversion (°F) Time of Min Temp Inversion GDDs (DL) Seas GDDs (DL) Chilling <=45F (hrs) Chilling <=45F Seas (hrs) HDDs (°F) CDDs (°F) Storm Total (In) Daily Max Rain Intensity (In/Hr) Time of Max Rain Intensity Max 1 Min Rain (In) Max 1 Min Rain Time Max 15 Min Rain (In) Max 15 Min Precip Time Max 60 Min Rain (In) Max 60 Min Rain Time MinBV Day (V)
2/3/23 57.2 0324 47.9 0926 0.26 0.26 23.00 0.029 0.42 93 16.3 0556 SE | 133 45.4 98 30 45.5 2358 1,028.0 1046 1,023.8 0349 56.0 51.4 57.6 46.5 7.2 0030 -4.0 1207 2.1 - 0.0 786 13.2 0.0 0.26 0.26 0730 0.01 1137 0.04 0739 0.09 0820 12.2
2/2/23 62.8 1620 31.3 0415 0.00 0.00 22.74 0.068 0.45 223 28.5 1622 S | 187 31.0 90 22 11.8 1558 1,028.2 0948 1,024.3 1423 62.3 47.3 62.6 32.2 5.7 0044 -6.1 1308 3.8 - 9.7 786 17.8 0.0 - - - - - - - - - 12.4
2/1/23 58.3 1517 29.9 0721 0.00 0.00 22.74 0.064 0.46 294 10.2 1214 NNE | 19 30.0 86 31 7.0 1428 1,027.4 2327 1,023.9 1311 60.5 42.8 57.1 30.9 6.6 1822 -5.9 1304 1.7 - 14.8 777 22.4 0.0 - - - - - - - - - 12.5
1/31/23 60.7 1425 28.4 0421 0.00 9.85 22.74 0.075 0.48 329 11.3 0652 SSW | 200 21.3 78 15 3.3 2258 1,027.5 0927 1,022.5 1603 63.7 42.7 59.4 30.0 7.3 0245 -6.7 1326 2.2 - 14.9 762 22.5 0.0 - - - - - - - - - 12.6
1/30/23 54.3 1401 30.7 0729 0.00 9.85 22.74 0.081 0.47 323 15.0 0007 NNE | 22 22.2 77 23 2.7 2158 1,024.8 2346 1,017.8 0001 57.2 42.1 52.6 31.7 6.0 1759 -6.2 1236 0.5 - 15.3 747 23.0 0.0 - - - - - - - - - 12.5
1/29/23 52.1 1212 46.0 1933 0.00 9.85 22.74 0.043 0.48 138 21.7 2231 NNE | 21 39.4 82 39 7.3 0000 1,018.0 2350 1,012.2 1222 55.2 48.1 51.3 45.5 1.6 0001 -5.3 1206 0.1 - 0.0 732 16.8 0.0 - - - - - - - - - 12.5
1/28/23 60.0 1408 36.0 0321 0.00 9.85 22.74 0.062 0.52 283 14.4 1451 WSW | 248 41.1 98 55 20.3 1043 1,021.4 1013 1,016.6 1449 62.9 45.6 58.6 36.9 6.2 2114 -9.0 1203 1.6 - 13.9 732 19.6 0.0 - - - - - - - - - 12.4
1/27/23 62.9 1342 34.5 0531 0.00 9.85 22.74 0.065 0.52 299 10.8 1018 N | 7 41.5 98 50 17.0 0628 1,031.4 0001 1,020.5 1747 66.1 47.0 61.4 36.1 5.4 0042 -6.2 1310 2.4 - 12.3 718 18.1 0.0 - - - - - - - - - 12.4
1/26/23 67.8 1504 36.1 0735 0.00 9.85 22.74 0.077 0.52 310 12.0 0558 SSW | 201 36.2 90 30 6.3 2328 1,034.7 0859 1,030.4 1631 69.9 50.4 66.5 38.9 11.7 0728 -5.3 1315 5.0 - 11.2 706 14.7 0.2 - - - - - - - - - 12.4
1/25/23 66.4 1350 34.8 0611 0.00 9.85 22.74 0.075 0.49 304 10.8 0617 SSW | 207 36.2 93 31 4.3 2043 1,032.6 0926 1,028.1 1601 68.6 48.8 65.2 36.0 7.0 1723 -5.5 1254 4.4 - 11.2 694 16.1 0.0 - - - - - - - - - 12.4
1/24/23 65.2 1437 33.5 0546 0.00 9.85 22.74 0.072 0.46 302 8.6 0032 SSW | 206 33.7 89 29 5.7 0658 1,032.2 0844 1,027.4 0033 66.9 46.8 64.3 35.2 10.1 0206 -5.2 1331 3.7 - 13.0 683 18.2 0.0 - - - - - - - - - 12.4
1/23/23 61.2 1438 33.9 0733 0.00 9.85 22.74 0.085 0.45 304 21.1 0016 N | 0 29.2 82 23 3.7 0858 1,027.8 2356 1,021.9 1409 63.5 47.5 60.5 35.6 10.6 0256 -4.5 1358 2.7 - 11.1 670 17.3 0.0 - - - - - - - - - 12.5
1/22/23 59.4 1527 35.7 0611 0.00 9.85 22.74 0.084 0.41 290 24.9 1301 N | 9 32.2 97 22 18.7 0858 1,030.2 0001 1,021.9 1514 60.3 47.5 58.6 36.4 3.9 0735 -4.7 1207 2.5 - 8.9 659 17.1 0.0 - - - - - - - - - 12.5
1/21/23 57.0 1518 30.5 0731 0.00 9.85 22.74 0.063 0.34 292 10.1 1330 NE | 36 31.1 92 31 3.3 2358 1,033.9 0853 1,030.0 2359 59.6 42.5 56.2 31.0 5.5 1721 -5.2 1208 1.4 - 15.5 650 22.6 0.0 - - - - - - - - - 12.4
1/20/23 54.8 1516 32.8 0659 0.00 9.85 22.74 0.065 0.31 291 16.9 0933 N | 2 31.6 95 35 3.2 0028 1,031.9 2355 1,027.4 0105 56.9 42.3 53.8 33.4 5.9 0739 -5.1 1319 0.7 - 15.1 635 22.7 0.0 - - - - - - - - - 12.5
1/19/23 52.6 1447 36.5 2359 0.01 9.85 22.74 0.051 0.26 250 13.5 1044 N | 9 40.2 98 57 5.8 0928 1,027.7 2305 1,024.2 0001 54.4 44.9 51.9 37.6 6.3 0426 -4.2 1300 0.3 - 11.8 620 20.1 0.0 0.11 0.06 0047 0.01 1535 0.01 1549 0.05 0008 12.5
1/18/23 59.1 1322 33.9 0555 0.10 9.84 22.73 0.048 0.29 197 17.2 2032 S | 176 41.4 98 55 5.8 2028 1,026.5 0929 1,022.6 0118 60.0 46.8 57.8 34.8 5.8 0748 -4.2 1206 2.4 - 9.4 608 18.0 0.0 0.10 0.11 2259 0.01 2348 0.03 2301 0.08 2341 12.5
1/17/23 56.9 1313 36.2 0718 0.00 9.74 22.63 0.057 0.26 277 11.0 1329 NNE | 22 38.4 98 40 7.5 0028 1,023.1 2312 1,015.5 0004 59.3 44.6 56.0 36.9 5.0 1844 -4.4 1321 1.3 - 14.6 598 20.4 0.0 - - - - - - - - - 12.5
1/16/23 55.0 1437 42.0 2359 0.83 9.74 22.63 0.042 0.26 163 25.6 1347 WNW | 290 43.6 98 60 7.8 2328 1,015.6 2359 998.5 0112 55.2 48.1 54.1 42.7 4.6 2354 -1.5 1353 0.9 - 2.9 584 16.0 0.0 3.94 0.61 0227 0.01 1324 0.10 0239 0.33 0238 12.6
1/15/23 54.0 1112 45.8 2229 0.97 8.91 21.80 0.016 0.24 58 14.3 2148 NE | 50 47.5 98 77 9.7 0543 1,011.2 1005 999.7 2351 53.4 48.7 53.4 44.8 1.8 0424 -1.0 0846 0.7 - 0.0 581 15.6 0.0 3.11 1.20 0757 0.02 0757 0.10 2346 0.18 0000 12.5
1/14/23 59.8 1130 48.6 2253 1.49 7.94 20.83 0.029 0.28 100 33.2 0830 SSW | 210 51.1 97 70 20.2 1343 1,016.4 0001 1,006.1 0830 59.8 53.6 58.9 48.0 3.2 1016 -3.6 1417 4.7 - 0.0 581 10.4 0.0 2.14 0.95 0801 0.02 0800 0.10 0807 0.33 0632 12.5
1/13/23 59.9 0617 51.6 0153 0.65 6.45 19.34 0.023 0.32 73 16.3 0635 SE | 130 50.0 97 51 6.3 0128 1,019.9 0101 1,016.3 2356 59.7 54.8 59.8 50.6 8.0 0308 -2.5 1417 5.5 - 0.0 581 9.5 0.0 0.65 0.82 1004 0.01 2357 0.11 1017 0.23 1054 12.5
1/12/23 67.6 1354 50.4 0803 0.00 5.80 18.69 0.073 0.34 213 22.5 1305 S | 187 48.2 94 47 13.7 0543 1,024.1 0148 1,018.8 1436 67.7 58.9 66.6 50.9 4.2 2347 -1.7 1111 9.7 - 0.0 581 5.5 0.2 - - - - - - - - - 12.4
1/11/23 60.2 1943 49.9 0609 0.24 5.80 18.69 0.023 0.30 51 24.4 1030 SSE | 158 50.4 94 74 13.2 2158 1,023.8 2355 1,019.4 1418 59.0 53.9 60.2 49.6 2.2 2309 -2.0 1114 4.7 - 0.0 581 10.3 0.0 3.13 0.20 1141 0.01 1613 0.04 1149 0.08 1222 12.2
1/10/23 60.4 0116 50.6 1022 0.40 5.56 18.45 0.050 0.30 128 43.5 0204 W | 266 47.5 92 66 17.8 0643 1,020.8 2328 1,004.6 0138 59.2 53.6 60.2 47.6 4.3 0302 -3.7 0714 4.6 - 0.0 581 10.4 0.0 2.89 1.33 0810 0.02 0811 0.12 0208 0.25 0235 12.5
1/9/23 60.2 1336 45.8 2116 1.59 5.16 18.05 0.028 0.29 105 29.0 0127 SSE | 155 52.0 98 62 19.3 1743 1,013.5 1117 1,006.5 0434 60.0 54.5 59.0 46.2 4.3 2134 -2.4 1107 5.7 - 0.0 581 9.6 0.0 2.49 0.66 0414 0.01 0853 0.10 0505 0.31 0510 12.5
1/8/23 64.1 1400 52.5 0826 0.46 3.57 16.46 0.056 0.28 172 32.3 0045 SSW | 211 50.7 96 55 19.2 0313 1,021.0 1039 1,011.4 2358 64.0 57.1 62.8 51.6 4.3 0801 -3.0 0143 8.0 - 0.0 581 7.0 0.0 0.90 0.82 0028 0.02 0028 0.13 0031 0.24 0037 12.5
1/7/23 63.7 1210 49.4 1723 0.44 3.11 16.00 0.065 0.30 99 32.6 2228 S | 183 43.5 94 36 10.3 0000 1,022.6 0002 1,010.9 2332 63.1 54.8 62.6 47.8 4.8 0619 -3.0 1604 5.7 - 0.0 581 9.3 0.0 0.44 0.69 1708 0.02 1707 0.12 1721 0.28 1721 12.5
1/6/23 62.2 1327 42.4 0556 0.00 2.67 15.56 0.045 0.24 167 16.1 1111 SE | 141 46.2 98 56 16.3 0000 1,028.0 0919 1,022.4 2353 62.5 51.6 61.5 44.1 5.6 0552 -1.5 1327 3.6 - 2.5 581 12.7 0.0 - - - - - - - - - 12.5
1/5/23 59.0 0340 47.8 2352 0.59 2.67 15.56 0.031 0.21 79 35.6 0034 SW | 214 49.3 96 69 19.5 1958 1,025.4 2358 1,006.6 0034 57.8 52.9 58.7 48.0 4.4 2103 -2.6 0035 4.0 - 0.0 578 11.3 0.0 2.17 1.24 1659 0.02 1659 0.09 0953 0.19 1036 12.5
1/4/23 61.2 1613 43.3 0001 1.58 2.08 14.97 0.031 0.20 92 46.4 2103 SSW | 195 50.8 98 74 4.2 0528 1,017.2 0011 1,003.7 1837 60.1 53.0 60.7 43.3 2.5 0619 -3.0 1450 4.7 - 3.3 578 11.5 0.0 1.58 1.71 1742 0.02 2320 0.19 1747 0.50 1806 12.5
1/3/23 57.8 1231 42.7 2242 0.03 0.50 13.39 0.038 0.21 160 15.8 1439 S | 184 46.8 98 65 7.8 0858 1,019.2 1101 1,013.9 0054 57.7 49.4 56.9 43.1 3.0 1952 -2.2 1126 1.7 - 3.0 575 15.3 0.0 0.50 0.03 0048 0.01 0326 0.01 0340 0.04 0011 12.4
1/2/23 55.0 1335 40.0 0026 0.47 0.47 13.36 0.020 0.18 47 23.1 1818 ESE | 108 40.8 98 60 4.8 2213 1,017.2 0816 1,010.1 1853 54.1 45.8 54.7 40.6 4.0 0020 -0.7 2130 0.3 - 8.8 572 18.5 0.0 0.47 2.25 1938 0.04 1939 0.27 1945 0.36 2029 12.6
1/1/23 60.8 1528 40.1 0734 0.00 0.00 12.89 0.066 0.18 260 17.0 1503 NW | 314 40.7 98 37 12.5 0128 1,017.1 2354 1,010.8 0123 60.4 48.7 60.1 41.9 8.0 0730 -1.6 1334 2.7 - 9.8 564 15.6 0.0 - - - - - - - - - 12.5
12/31/22 60.7 0655 50.0 2341 4.05 10.70 12.89 0.013 0.16 33 30.5 0826 SSW | 205 53.9 98 82 11.8 2058 1,015.1 0009 1,004.5 1350 59.2 54.4 58.8 49.1 3.1 2230 -1.5 1305 5.6 - 0.0 554 9.4 0.0 6.87 1.56 0547 0.02 1454 0.25 0555 0.76 0621 12.3
12/30/22 63.5 1515 54.2 0009 0.46 6.65 8.84 0.014 0.20 43 20.1 1537 WSW | 247 57.9 98 86 8.7 2143 1,018.5 1027 1,014.9 2358 62.2 58.4 62.3 53.6 2.1 0740 -1.6 1454 9.3 - 0.0 554 5.7 0.0 2.82 0.13 0207 0.01 2343 0.03 0212 0.07 0239 12.2
12/29/22 57.7 1458 47.4 0508 0.29 6.19 8.38 0.017 0.22 67 12.8 0700 SSE | 152 49.4 98 77 13.7 0028 1,017.4 2154 1,013.1 0651 56.8 51.1 56.5 46.6 1.3 0755 -1.4 1001 2.4 - 0.0 554 13.1 0.0 2.36 0.47 1930 0.01 2128 0.06 1942 0.11 1959 12.2
12/28/22 58.3 1219 38.0 0534 0.01 5.90 8.09 0.043 0.24 206 9.3 1244 NNE | 33 44.2 98 64 16.0 1558 1,020.3 0830 1,015.2 2333 58.9 47.5 57.4 39.2 6.2 0457 -2.6 1231 1.6 - 8.5 554 17.0 0.0 2.07 0.01 0434 0.01 0335 0.01 0349 0.01 0434 12.3
12/27/22 60.0 1158 43.7 2359 1.91 5.89 8.08 0.011 0.25 29 22.8 0454 S | 176 52.7 98 82 21.8 1543 1,019.0 2346 1,012.7 0430 58.7 53.3 58.7 45.2 4.5 2003 -1.0 0001 5.1 - 0.3 545 10.5 0.0 2.06 1.56 0232 0.02 0815 0.15 0239 0.38 0310 12.5
12/26/22 55.7 1418 42.8 0218 0.15 3.98 6.17 0.020 0.28 79 15.0 1912 ESE | 122 47.7 98 79 63.5 1113 1,026.8 0156 1,017.3 2330 56.0 49.4 56.5 43.0 3.9 0133 -2.2 1333 1.7 - 4.4 545 15.2 0.0 0.15 0.23 1910 0.01 0000 0.05 1919 0.09 2004 12.5
12/25/22 63.5 1246 40.6 0626 0.00 3.83 6.02 0.047 0.29 214 10.1 1229 NNW | 340 46.2 98 60 31.3 2313 1,031.2 0001 1,024.2 1635 65.5 50.5 62.2 41.8 5.9 0553 -4.2 1327 3.4 - 7.2 540 14.2 0.0 - - - - - - - - - 12.2
12/24/22 63.8 1517 37.7 0629 0.00 3.83 6.02 0.047 0.29 222 10.0 2102 SSW | 192 43.7 98 54 88.5 0913 1,034.2 0942 1,029.1 1504 65.0 49.1 63.0 38.4 5.1 2228 -4.5 1307 3.3 - 8.9 533 15.7 0.0 - - - - - - - - - 12.4
12/23/22 58.5 1240 40.0 2349 0.00 3.83 6.02 0.039 0.29 188 9.6 1312 N | 352 45.3 97 68 74.8 0828 1,029.9 2358 1,024.7 0150 61.4 49.3 57.5 41.4 4.9 1829 -4.7 1227 1.8 - 4.4 524 15.5 0.0 - - - - - - - - - 12.5
12/22/22 58.1 1440 38.7 0615 0.00 3.83 6.02 0.037 0.30 180 7.5 1219 ENE | 60 42.4 96 58 71.0 1843 1,026.1 0001 1,021.7 1514 59.6 47.7 56.5 39.5 3.3 0521 -4.9 1330 1.5 - 8.6 520 17.2 0.0 - - - - - - - - - 12.5
12/21/22 59.2 1238 35.0 0656 0.00 3.83 6.02 0.046 0.31 225 7.9 1428 N | 350 39.0 96 48 30.2 0928 1,030.1 0003 1,025.5 1745 61.0 45.2 57.5 35.6 4.7 1736 -4.4 1251 1.8 - 12.7 511 19.6 0.0 - - - - - - - - - 12.2
12/20/22 57.6 1403 38.7 2349 0.00 3.83 6.02 0.044 0.31 220 8.3 1432 N | 10 40.8 96 55 79.8 0913 1,032.5 1012 1,028.6 1412 59.3 45.3 56.2 39.2 3.6 1713 -4.9 1334 1.0 - 14.8 499 19.8 0.0 - - - - - - - - - 12.2
12/19/22 50.0 1234 30.4 0457 0.00 3.83 6.02 0.032 0.31 175 9.2 1024 ENE | 74 36.5 98 68 57.7 0913 1,031.0 2334 1,024.4 0031 51.3 40.0 48.0 31.7 3.9 0155 -4.9 1225 0.0 - 17.3 484 25.1 0.0 - - - - - - - - - 12.5
12/18/22 55.0 1357 30.4 0651 0.00 3.83 6.02 0.045 0.32 241 8.2 0539 SSW | 205 36.3 98 59 45.0 2113 1,024.7 2351 1,019.1 1343 57.5 40.5 54.0 31.3 5.1 1706 -4.6 1300 0.7 - 16.6 467 24.4 0.0 - - - - - - - - - 12.5
12/17/22 58.2 1358 30.5 0719 0.00 3.83 6.02 0.048 0.32 247 9.6 0511 SSW | 192 36.7 98 49 31.8 0928 1,024.2 0008 1,019.4 1619 59.7 41.9 57.0 31.4 6.3 1703 -5.1 1323 1.3 - 16.0 450 22.9 0.0 - - - - - - - - - 12.3
12/16/22 57.0 1453 30.8 0733 0.00 3.83 6.02 0.048 0.30 246 8.6 2204 SSW | 196 36.4 96 54 19.2 0913 1,026.7 0952 1,022.7 1634 58.6 41.5 56.3 31.8 6.1 1703 -4.8 1259 1.0 - 15.7 434 23.3 0.0 - - - - - - - - - 12.5
12/15/22 58.0 1326 33.4 0518 0.00 3.83 6.02 0.045 0.30 223 8.8 0603 SSW | 202 36.2 98 43 13.7 0613 1,027.9 0004 1,022.7 1448 59.4 42.5 56.5 34.4 8.0 0637 -4.1 1233 1.3 - 15.7 418 22.3 0.0 - - - - - - - - - 12.5
12/14/22 54.5 1357 30.6 0702 0.00 3.83 6.02 0.044 0.29 234 8.0 1842 SSW | 209 36.3 98 52 8.7 1058 1,028.8 0954 1,025.2 1431 56.0 41.2 53.4 31.7 4.4 1726 -4.7 1237 0.7 - 16.3 403 23.7 0.0 - - - - - - - - - 12.4
12/13/22 55.2 1340 31.2 0722 0.00 3.83 6.02 0.049 0.29 250 11.8 1350 N | 0 35.3 98 43 5.8 0413 1,026.9 2329 1,020.3 0025 57.8 40.9 54.6 32.0 5.3 1659 -4.1 1303 0.8 - 16.4 386 23.8 0.0 - - - - - - - - - 12.5
12/12/22 53.3 1504 35.5 2348 0.02 3.83 6.02 0.039 0.28 193 13.8 0003 E | 98 40.4 97 58 7.0 2043 1,020.8 2318 1,010.4 0002 55.3 44.6 52.6 35.8 3.7 2001 -4.1 1344 0.3 - 11.7 370 20.1 0.0 2.04 0.05 0016 0.01 0639 0.01 0653 0.02 0004 12.5
12/11/22 54.5 1338 43.7 0709 0.66 3.81 6.00 0.042 0.28 181 25.6 0237 W | 259 42.9 96 59 4.2 0128 1,014.1 1035 1,007.7 0138 55.1 46.6 53.6 42.2 1.8 1918 -5.0 1024 0.5 - 6.6 358 17.8 0.0 2.02 1.16 0148 0.02 0149 0.07 1652 0.13 0004 12.5
12/10/22 61.4 0954 48.3 0000 1.36 3.15 5.34 0.030 0.28 70 41.1 1154 SW | 215 50.2 95 69 9.3 1658 1,018.5 0003 1,007.1 1655 60.5 53.6 60.5 46.1 2.0 2016 -3.6 0938 4.7 - 0.0 352 10.3 0.0 1.36 0.77 1128 0.01 2359 0.12 1151 0.38 1205 12.5
12/9/22 57.5 1248 38.6 0708 0.00 1.79 3.98 0.047 0.26 202 12.0 2140 SE | 145 41.7 98 53 6.8 1928 1,026.9 0906 1,018.3 2358 59.2 48.4 55.8 39.3 3.2 0144 -4.4 1220 1.7 - 7.4 352 16.2 0.0 - - - - - - - - - 12.5
12/8/22 58.1 1235 33.1 0629 0.02 1.79 3.98 0.038 0.27 132 21.1 1409 S | 172 40.7 98 54 6.7 0943 1,029.6 0233 1,024.5 1933 58.3 45.9 56.9 33.7 3.2 0547 -1.9 1123 1.9 - 9.7 344 18.8 0.0 - 0.01 2358 0.01 2259 0.01 2313 0.01 2358 12.5
12/7/22 59.2 1247 34.5 0706 0.00 1.77 3.96 0.048 0.24 213 10.5 1311 NE | 48 40.5 98 56 9.2 0913 1,029.6 2336 1,023.4 0113 61.4 44.4 57.9 35.8 4.8 0434 -4.8 1254 1.7 - 14.9 334 20.3 0.0 - - - - - - - - - 12.5
12/6/22 55.7 1138 40.4 2359 0.00 1.77 3.96 0.034 0.24 141 17.0 0232 SE | 129 43.6 98 66 5.8 1943 1,023.8 2359 1,018.7 0443 56.8 47.0 54.4 41.1 5.1 1749 -3.2 1112 1.1 - 9.8 320 17.6 0.0 - - - - - - - - - 12.5
12/5/22 59.8 1324 43.1 2110 0.08 1.77 3.96 0.042 0.27 168 17.2 0533 WSW | 247 46.7 97 57 6.8 1013 1,021.1 0001 1,018.5 1434 61.2 51.2 58.8 44.5 7.5 2114 -2.6 1230 2.8 - 2.0 310 13.4 0.0 0.85 0.30 0738 0.01 2247 0.04 0745 0.04 0830 12.5
12/4/22 60.8 1324 45.7 0017 0.05 1.69 3.88 0.045 0.29 181 15.9 1325 SSW | 206 47.7 98 60 10.3 0158 1,022.4 1129 1,018.0 0007 61.2 51.4 59.8 45.7 4.7 2338 -2.1 1316 2.9 - 0.0 308 13.1 0.0 0.77 0.04 0413 0.01 2113 0.01 2127 0.03 0419 12.5
12/3/22 49.5 2054 39.5 0000 0.72 1.64 3.83 0.010 0.30 48 7.2 2342 ESE | 113 45.1 98 90 13.7 0928 1,021.6 0001 1,016.0 1527 48.8 45.8 48.4 39.5 2.3 2318 -2.0 1132 0.0 - 8.6 308 18.8 0.0 0.72 0.62 1945 0.01 2341 0.06 1642 0.15 1722 12.6
12/2/22 53.5 1501 31.2 0611 0.00 0.92 3.11 0.050 0.35 261 11.8 1101 NE | 49 35.9 98 49 5.2 2013 1,026.3 0949 1,021.5 2341 54.4 40.0 52.5 31.8 4.4 1716 -3.6 1340 0.3 - 17.0 299 24.6 0.0 - - - - - - - - - 12.6
12/1/22 53.2 0408 35.1 2355 0.92 0.92 3.11 0.008 0.37 31 22.1 0241 SSE | 163 44.2 98 74 6.5 2113 1,023.2 2358 1,012.3 0728 52.2 46.3 52.6 36.2 4.1 2311 -1.5 0709 0.3 - 5.5 282 18.0 0.0 0.92 1.56 0937 0.02 0939 0.16 0951 0.34 0951 12.6
11/30/22 58.5 1326 30.8 0657 0.00 1.80 2.19 0.055 0.43 255 15.4 1928 S | 187 35.9 94 46 5.7 0913 1,020.9 0009 1,015.6 2356 61.5 45.2 57.1 32.3 5.7 2200 -5.7 1327 1.8 - 9.0 277 19.8 0.0 - - - - - - - - - 12.5
11/29/22 58.4 1409 34.2 0710 0.00 1.80 2.19 0.058 0.44 270 9.1 0615 SSW | 199 33.9 93 34 8.5 0000 1,021.7 0957 1,018.1 1544 61.8 44.2 57.2 34.8 5.0 0251 -5.6 1307 1.7 - 14.4 268 20.9 0.0 - - - - - - - - - 12.5
11/28/22 60.5 1205 36.5 0629 0.00 1.80 2.19 0.068 0.44 260 29.2 1523 WNW | 296 40.3 94 47 9.0 2258 1,020.4 0842 1,017.0 1416 62.8 48.1 59.6 37.2 4.4 0842 -4.3 1136 2.6 - 8.5 253 16.7 0.0 - - - - - - - - - 12.4
11/27/22 68.9 1349 35.1 0349 0.00 1.80 2.19 0.052 0.44 226 10.6 2348 S | 187 39.2 93 29 28.2 0658 1,024.3 0748 1,019.5 2355 70.6 47.6 67.8 36.2 5.5 0133 -4.7 1224 3.8 - 12.6 245 17.4 0.2 - - - - - - - - - 12.4
11/26/22 64.7 1426 36.8 0416 0.00 1.80 2.19 0.063 0.46 269 10.6 2157 SSW | 203 37.3 84 33 13.7 0858 1,027.2 0352 1,021.7 1631 67.6 48.2 63.7 37.7 6.2 0223 -6.0 1325 3.3 - 12.8 232 17.0 0.0 - - - - - - - - - 12.4
11/25/22 68.0 1448 35.0 0657 0.00 1.80 2.19 0.067 0.46 273 9.7 2201 SSW | 192 37.6 91 33 26.8 1628 1,030.2 0819 1,025.7 1438 70.2 49.0 67.2 35.8 6.6 0504 -6.0 1256 4.4 - 12.3 219 16.2 0.1 - - - - - - - - - 12.4
11/24/22 69.6 1437 37.5 0602 0.00 1.80 2.19 0.066 0.47 276 9.6 0429 SSW | 194 37.8 85 32 12.0 1013 1,028.6 2359 1,023.3 1315 71.5 50.5 68.8 39.5 7.8 0249 -5.4 1309 5.1 - 10.9 207 14.8 0.5 - - - - - - - - - 12.4
11/23/22 69.4 1356 37.0 0715 0.00 1.80 2.19 0.066 0.47 272 11.8 2356 SSW | 198 38.9 96 32 13.8 0858 1,026.5 0814 1,022.1 1434 72.1 50.1 68.4 38.5 6.0 1730 -5.2 1327 5.2 - 11.4 196 15.3 0.5 - - - - - - - - - 12.4
11/22/22 65.0 1359 32.7 0624 0.00 1.80 2.19 0.061 0.48 263 8.8 0508 SSW | 203 34.0 84 30 9.5 0943 1,026.3 0825 1,022.1 1613 67.4 47.2 65.1 33.8 6.2 1747 -5.6 1218 3.8 - 12.2 185 17.8 0.0 - - - - - - - - - 12.4
11/21/22 65.6 1434 34.0 0703 0.00 1.80 2.19 0.067 0.49 282 10.6 0001 SSW | 201 33.9 89 28 18.0 0213 1,027.0 0813 1,022.9 1443 68.5 47.3 64.0 36.1 7.0 0246 -5.7 1234 3.7 - 12.4 172 17.6 0.0 - - - - - - - - - 12.4
11/20/22 66.3 1438 32.5 0429 0.00 1.80 2.19 0.065 0.49 289 10.2 2358 SSW | 196 34.5 91 28 26.2 1043 1,029.3 0829 1,024.2 1617 68.5 46.8 65.4 33.4 6.2 1711 -5.9 1324 3.7 - 12.8 160 18.3 0.0 - - - - - - - - - 12.4
11/19/22 64.0 1530 33.5 0642 0.00 1.80 2.19 0.071 0.50 292 17.0 0955 E | 84 30.7 82 26 9.7 2243 1,027.2 2322 1,022.6 1424 67.0 46.8 63.7 35.5 10.3 0647 -5.8 1251 3.0 - 13.1 147 18.3 0.0 - - - - - - - - - 12.4
11/18/22 66.3 1321 35.4 0342 0.00 1.80 2.19 0.072 0.50 294 10.6 0249 SSW | 192 36.4 92 28 13.7 0913 1,025.0 0001 1,018.7 1546 69.5 48.2 65.1 35.9 6.6 1701 -6.1 1219 4.1 - 12.0 134 16.9 0.0 - - - - - - - - - 12.2
11/17/22 64.6 1302 34.0 0535 0.00 1.80 2.19 0.064 0.50 268 10.2 1317 N | 11 35.5 87 29 21.3 1458 1,030.0 0003 1,024.4 1640 67.7 47.0 62.6 35.0 4.9 1851 -6.4 1224 3.3 - 12.3 122 18.2 0.0 - - - - - - - - - 12.4
11/16/22 68.1 1445 36.0 0625 0.00 1.80 2.19 0.079 0.50 307 11.8 0644 SSW | 203 30.5 80 18 6.2 2058 1,032.2 0823 1,028.0 1510 71.7 49.4 67.2 38.5 6.9 1711 -5.9 1240 4.7 - 12.0 110 15.8 0.3 - - - - - - - - - 12.4
11/15/22 66.3 1456 36.8 0659 0.00 1.80 2.19 0.074 0.49 306 11.6 1113 NNE | 12 36.0 93 28 15.2 0643 1,029.9 2324 1,024.2 0001 68.5 49.5 65.3 37.7 5.7 1639 -5.9 1253 4.0 - 11.2 98 15.4 0.0 - - - - - - - - - 12.4
11/14/22 61.1 1343 32.8 0629 0.00 1.80 2.19 0.066 0.46 298 9.2 1245 NE | 46 37.2 94 34 6.3 2258 1,026.0 0902 1,021.1 1532 64.5 47.3 60.6 33.8 3.8 2229 -6.4 1301 2.6 - 8.6 87 17.9 0.0 - - - - - - - - - 12.4
11/13/22 60.4 1513 38.5 0000 0.00 1.80 2.19 0.073 0.47 316 11.6 1352 N | 4 37.8 98 35 4.3 0628 1,025.5 0809 1,021.8 1501 64.0 48.3 59.9 39.2 7.6 1940 -6.1 1310 2.6 - 11.5 78 16.9 0.0 - - - - - - - - - 12.4
11/12/22 59.8 1229 38.1 0031 0.00 1.80 2.19 0.077 0.47 312 19.2 1625 NW | 317 40.8 97 44 4.3 2228 1,024.0 0856 1,021.7 1443 63.8 49.4 58.8 39.2 4.7 0750 -5.7 1238 2.6 - 7.1 67 15.8 0.0 - - - - - - - - - 12.4
11/11/22 61.0 1315 35.3 0559 0.00 1.80 2.19 0.063 0.44 284 10.2 1538 NNW | 344 39.2 97 43 4.7 1643 1,026.2 0026 1,021.2 1520 63.8 46.4 59.8 36.1 4.0 1717 -5.9 1250 2.5 - 13.4 59 18.6 0.0 - - - - - - - - - 12.4
11/10/22 59.8 1312 37.8 0654 0.00 1.80 2.19 0.069 0.44 318 11.5 1142 ENE | 70 40.1 97 48 7.5 0658 1,029.8 0841 1,024.7 1520 63.5 46.9 58.8 38.7 3.6 1713 -6.3 1220 2.1 - 12.9 46 18.3 0.0 - - - - - - - - - 12.4
11/9/22 60.1 1258 39.2 0617 0.02 1.80 2.19 0.071 0.45 298 17.1 1252 WNW | 291 42.3 98 49 6.7 2058 1,028.4 2309 1,013.3 0001 64.3 48.4 59.3 39.5 4.5 1821 -6.2 1301 2.4 - 12.0 33 16.6 0.0 1.45 0.04 0217 0.01 0118 0.02 0118 0.02 0203 12.4
11/8/22 55.7 1243 44.2 2359 1.21 1.78 2.17 0.041 0.45 179 21.1 1133 WNW | 292 45.0 98 63 2.5 0000 1,013.4 2359 1,004.4 0721 57.1 48.7 54.0 44.5 2.6 1855 -4.5 1249 0.8 - 0.1 21 15.7 0.0 1.43 0.60 0325 0.01 2149 0.12 0333 0.31 0414 12.5
11/7/22 60.9 1341 44.3 0649 0.07 0.57 0.96 0.077 0.45 307 22.2 0108 NW | 326 44.7 97 42 5.0 0843 1,016.5 0833 1,011.4 2346 64.7 52.7 60.5 44.6 4.2 0627 -6.1 1406 3.3 - 0.2 21 12.1 0.0 0.22 0.34 0054 0.01 2318 0.03 0103 0.15 0007 12.4
11/6/22 61.7 1226 52.4 0642 0.15 0.50 0.89 0.075 0.43 224 17.7 2117 S | 186 45.6 95 50 9.7 0643 1,018.2 0342 1,011.7 2340 65.9 56.6 60.8 51.2 2.1 0643 -6.0 1223 6.7 - 0.0 21 8.3 0.0 0.15 0.40 2330 0.01 2356 0.09 2322 0.15 0000 12.4
11/5/22 65.4 1245 48.0 0744 0.02 0.35 0.74 0.043 0.44 146 13.7 1437 S | 191 54.0 98 70 11.8 0143 1,028.3 0101 1,017.5 0024 66.5 57.7 64.0 48.8 3.0 0630 -3.2 1211 8.2 - 0.0 21 6.9 0.0 - 0.02 0604 0.01 0505 0.01 0519 0.02 0527 12.4
11/4/22 65.2 1455 36.8 0415 0.00 0.33 0.72 0.060 0.49 244 10.8 1300 ENE | 59 43.4 96 45 6.8 0058 1,031.7 0957 1,027.9 1651 68.0 51.3 63.4 37.1 4.3 0315 -5.5 1455 4.4 - 7.1 21 14.0 0.0 - - - - - - - - - 12.4
11/3/22 60.5 1604 37.0 0739 0.00 0.33 0.72 0.082 0.50 346 15.0 1417 N | 2 35.7 91 30 3.7 1228 1,029.5 0046 1,022.5 0202 63.7 48.0 59.8 37.6 6.0 0411 -6.6 1314 2.3 - 10.2 14 17.1 0.0 - - - - - - - - - 12.4
11/2/22 59.4 1352 41.9 2308 0.01 0.33 0.72 0.072 0.52 285 29.0 1159 W | 271 43.1 96 53 5.5 0743 1,022.9 1210 1,020.1 0136 63.1 50.6 58.3 43.7 5.6 2308 -5.7 1336 2.5 - 2.5 3 14.1 0.0 0.33 0.01 1306 0.01 1207 0.01 1221 0.01 1306 12.5
11/1/22 61.9 1056 43.7 2310 0.32 0.32 0.71 0.038 0.55 134 29.8 1524 WSW | 256 47.7 95 59 5.0 0100 1,020.3 0053 1,012.1 1040 61.6 52.5 60.9 44.7 5.8 2333 -4.4 1425 3.9 - 1.0 1 11.9 0.0 0.32 1.24 1124 0.02 1126 0.13 1135 0.23 1222 12.5
10/31/22 66.1 1605 44.1 0422 0.00 0.00 0.39 0.058 0.61 234 12.3 2019 SSW | 197 48.1 96 63 34.0 1813 1,020.6 0101 1,012.1 1649 68.6 53.8 64.9 44.3 4.7 0054 -6.0 1428 5.3 2,878 2.4 - 11.4 0.0 - - - - - - - - - 12.4
10/30/22 71.3 1356 45.3 0059 0.00 0.00 0.39 0.084 0.66 320 10.2 1532 NNE | 18 52.0 98 54 20.7 0343 1,024.8 0101 1,018.7 1715 76.2 57.4 70.2 46.5 4.9 0104 -8.6 1146 7.2 2,872 0.0 - 9.0 0.8 - - - - - - - - - 12.3
10/29/22 70.6 1620 38.4 0632 0.00 0.00 0.39 0.092 0.69 340 16.6 1626 NW | 314 42.7 89 36 11.8 2213 1,028.2 0908 1,023.4 1516 74.5 54.3 69.6 39.8 5.8 1921 -6.8 1349 7.0 2,865 7.8 - 11.9 0.9 - - - - - - - - - 12.3
10/28/22 68.5 1318 40.0 0725 0.00 0.00 0.39 0.078 0.71 290 13.1 1424 N | 11 41.3 84 35 13.7 2058 1,027.0 0058 1,021.8 0101 73.3 52.5 67.4 41.1 5.1 1902 -7.1 1334 5.5 2,858 8.4 - 12.9 0.3 - - - - - - - - - 12.4
10/27/22 71.6 1409 38.2 0710 0.00 0.00 0.39 0.100 0.73 370 12.0 1507 N | 352 37.8 89 23 10.3 0828 1,022.0 0927 1,017.9 1408 75.9 53.6 70.0 39.6 5.9 1823 -7.8 1306 6.6 2,853 7.8 - 12.6 0.9 - - - - - - - - - 12.3
10/26/22 66.7 1523 38.8 0616 0.00 0.00 0.39 0.098 0.74 366 17.6 1341 N | 352 40.6 91 36 18.8 0943 1,023.2 0840 1,018.4 1741 71.4 52.1 65.9 40.0 4.7 1916 -6.9 1243 5.3 2,846 8.6 - 13.5 0.1 - - - - - - - - - 12.3
10/25/22 69.1 1515 42.1 0059 0.00 0.00 0.39 0.099 0.76 370 16.2 1422 NNE | 17 44.8 92 42 12.0 0728 1,026.2 0101 1,019.6 1538 73.1 55.3 68.1 44.6 7.0 2255 -7.2 1230 6.6 2,841 1.7 - 10.7 0.5 - - - - - - - - - 12.3
10/24/22 74.2 1538 41.9 0651 0.00 0.00 0.39 0.109 0.76 382 11.2 0446 SSW | 200 35.7 76 18 8.3 0913 1,026.3 0950 1,022.3 0101 78.6 57.3 72.8 43.6 5.9 0258 -7.8 1237 8.8 2,834 6.6 - 10.0 1.9 - - - - - - - - - 12.5
10/23/22 68.3 1453 40.7 0739 0.00 0.00 0.39 0.113 0.76 392 19.5 1559 NNW | 335 38.2 86 27 10.0 0143 1,022.8 0034 1,014.6 0101 72.9 54.1 67.6 41.9 7.9 2104 -6.6 1237 5.9 2,825 5.2 - 11.7 0.3 - - - - - - - - - 12.4
10/22/22 68.4 1313 48.3 0059 0.00 0.00 0.39 0.116 0.70 355 29.9 1746 WNW | 303 48.0 92 43 19.2 0313 1,014.8 0050 1,009.7 1401 73.1 60.4 67.4 50.2 4.9 0055 -6.6 1326 10.2 2,820 0.0 - 5.0 0.2 - - - - - - - - - 12.4
10/21/22 67.8 1645 48.4 0241 0.00 0.00 0.39 0.092 0.67 367 14.4 1355 N | 355 52.9 96 63 41.3 0928 1,016.2 0950 1,012.4 1834 72.3 59.7 66.2 49.3 2.8 0258 -7.7 1241 8.8 2,809 0.0 - 6.4 0.2 - - - - - - - - - 12.3
10/20/22 78.9 1412 45.8 0734 0.00 0.00 0.39 0.110 0.68 388 9.4 1539 N | 1 49.6 94 40 27.3 1843 1,019.0 0904 1,012.5 1648 84.4 60.2 77.0 47.3 6.1 0503 -7.9 1353 10.1 2,801 0.0 - 8.0 2.6 - - - - - - - - - 12.3
10/19/22 89.8 1349 50.4 0724 0.00 0.00 0.39 0.122 0.66 390 8.6 2305 SSW | 195 48.4 84 20 10.8 0743 1,021.9 0917 1,015.8 1722 93.2 67.0 87.9 51.4 8.9 1843 -6.7 1340 16.9 2,790 0.0 - 5.2 7.1 - - - - - - - - - 12.3
10/18/22 82.3 1628 49.8 0650 0.00 0.00 0.39 0.101 0.63 344 9.1 2113 SSW | 203 53.6 95 38 12.8 1428 1,022.3 0849 1,017.2 1649 85.6 64.3 81.3 50.4 5.4 0026 -7.5 1346 14.1 2,774 0.0 - 5.1 4.2 - - - - - - - - - 12.3
10/17/22 72.0 1613 45.8 0656 0.00 0.00 0.39 0.103 0.63 381 11.8 1457 NNE | 15 51.6 97 55 8.0 2213 1,022.6 0900 1,017.4 1650 76.7 59.2 71.0 46.6 4.4 1922 -8.2 1318 9.2 2,759 0.0 - 7.7 1.3 - - - - - - - - - 12.3
10/16/22 68.1 1552 50.0 0057 0.00 0.00 0.39 0.050 0.64 151 14.7 1610 W | 265 53.1 92 60 21.7 0628 1,022.2 0052 1,016.4 0101 70.8 61.3 66.9 50.2 3.1 1841 -5.1 1557 11.4 2,750 0.0 - 3.9 0.3 - - - - - - - - - 12.4
10/15/22 69.2 1333 57.1 0726 0.00 0.00 0.39 0.095 0.69 359 18.2 1636 W | 265 54.7 91 63 22.3 0313 1,016.6 0016 1,013.0 1402 73.8 62.2 67.7 56.4 0.6 2335 -9.3 1259 11.4 2,739 0.0 - 3.9 0.3 - - - - - - - - - 12.3
10/14/22 71.0 1353 53.2 2244 0.00 0.00 0.39 0.094 0.71 356 10.8 1432 NNE | 21 54.9 96 61 23.0 0313 1,016.7 0118 1,009.6 1636 76.0 60.9 68.8 54.2 3.0 2237 -8.7 1356 10.0 2,727 0.0 - 5.7 0.7 - - - - - - - - - 12.3
10/13/22 68.1 1455 50.9 2336 0.00 0.00 0.39 0.097 0.73 383 12.0 1358 N | 1 54.0 97 65 14.2 0058 1,022.0 0120 1,016.0 1716 72.8 60.7 66.8 51.7 3.3 2125 -8.9 1407 9.7 2,717 0.0 - 5.6 0.3 - - - - - - - - - 12.3
10/12/22 70.4 1356 55.9 2125 0.00 0.00 0.39 0.090 0.75 339 10.9 1402 ENE | 72 56.5 95 65 38.5 0428 1,022.8 1033 1,019.4 1401 75.1 62.5 68.5 56.4 3.0 2100 -8.6 1411 11.6 2,708 0.0 - 4.0 0.6